sensor_id;sensor_type;location;lat;lon;timestamp;pressure;altitude;pressure_sealevel;temperature;humidity
60974;BME280;46846;51.528;5.076;2023-12-04T00:01:22;100725.66;;;-0.47;84.68
60974;BME280;46846;51.528;5.076;2023-12-04T00:03:48;100726.53;;;-0.46;84.64
60974;BME280;46846;51.528;5.076;2023-12-04T00:06:13;100723.97;;;-0.45;84.62
60974;BME280;46846;51.528;5.076;2023-12-04T00:08:39;100714.34;;;-0.46;84.60
60974;BME280;46846;51.528;5.076;2023-12-04T00:11:05;100711.72;;;-0.47;85.02
60974;BME280;46846;51.528;5.076;2023-12-04T00:13:31;100708.19;;;-0.49;84.52
60974;BME280;46846;51.528;5.076;2023-12-04T00:15:56;100708.19;;;-0.49;84.84
60974;BME280;46846;51.528;5.076;2023-12-04T00:18:21;100707.34;;;-0.50;84.41
60974;BME280;46846;51.528;5.076;2023-12-04T00:20:47;100702.97;;;-0.49;85.01
60974;BME280;46846;51.528;5.076;2023-12-04T00:23:12;100703.88;;;-0.49;84.71
60974;BME280;46846;51.528;5.076;2023-12-04T00:25:38;100694.31;;;-0.48;84.86
60974;BME280;46846;51.528;5.076;2023-12-04T00:28:03;100690.81;;;-0.46;84.70
60974;BME280;46846;51.528;5.076;2023-12-04T00:30:29;100693.41;;;-0.49;84.44
60974;BME280;46846;51.528;5.076;2023-12-04T00:32:54;100689.03;;;-0.50;84.71
60974;BME280;46846;51.528;5.076;2023-12-04T00:35:20;100677.72;;;-0.52;84.66
60974;BME280;46846;51.528;5.076;2023-12-04T00:37:45;100684.63;;;-0.54;85.02
60974;BME280;46846;51.528;5.076;2023-12-04T00:40:10;100670.75;;;-0.50;84.73
60974;BME280;46846;51.528;5.076;2023-12-04T00:42:36;100671.59;;;-0.49;84.55
60974;BME280;46846;51.528;5.076;2023-12-04T00:45:02;100666.41;;;-0.48;84.82
60974;BME280;46846;51.528;5.076;2023-12-04T00:47:28;100667.31;;;-0.44;84.55
60974;BME280;46846;51.528;5.076;2023-12-04T00:49:53;100662.97;;;-0.44;84.46
60974;BME280;46846;51.528;5.076;2023-12-04T00:52:19;100669.88;;;-0.49;84.70
60974;BME280;46846;51.528;5.076;2023-12-04T00:54:44;100662.97;;;-0.44;84.62
60974;BME280;46846;51.528;5.076;2023-12-04T00:57:09;100663.81;;;-0.46;84.74
60974;BME280;46846;51.528;5.076;2023-12-04T00:59:35;100660.34;;;-0.44;84.54
60974;BME280;46846;51.528;5.076;2023-12-04T01:02:00;100660.31;;;-0.47;84.57
60974;BME280;46846;51.528;5.076;2023-12-04T01:04:26;100652.44;;;-0.50;84.88
60974;BME280;46846;51.528;5.076;2023-12-04T01:06:52;100656.84;;;-0.47;84.71
60974;BME280;46846;51.528;5.076;2023-12-04T01:09:17;100649.78;;;-0.53;84.41
60974;BME280;46846;51.528;5.076;2023-12-04T01:11:43;100655.91;;;-0.49;84.62
60974;BME280;46846;51.528;5.076;2023-12-04T01:14:08;100653.31;;;-0.49;85.28
60974;BME280;46846;51.528;5.076;2023-12-04T01:16:33;100641.13;;;-0.46;85.00
60974;BME280;46846;51.528;5.076;2023-12-04T01:18:59;100638.53;;;-0.44;85.01
60974;BME280;46846;51.528;5.076;2023-12-04T01:21:24;100634.22;;;-0.44;84.58
60974;BME280;46846;51.528;5.076;2023-12-04T01:23:50;100632.41;;;-0.48;84.64
60974;BME280;46846;51.528;5.076;2023-12-04T01:26:15;100626.31;;;-0.50;84.61
60974;BME280;46846;51.528;5.076;2023-12-04T01:28:41;100626.34;;;-0.45;84.79
60974;BME280;46846;51.528;5.076;2023-12-04T01:31:06;100623.72;;;-0.45;84.60
60974;BME280;46846;51.528;5.076;2023-12-04T01:33:32;100632.47;;;-0.45;84.46
60974;BME280;46846;51.528;5.076;2023-12-04T01:35:57;100632.47;;;-0.45;84.85
60974;BME280;46846;51.528;5.076;2023-12-04T01:38:22;100628.94;;;-0.50;85.03
60974;BME280;46846;51.528;5.076;2023-12-04T01:40:48;100618.50;;;-0.45;84.82
60974;BME280;46846;51.528;5.076;2023-12-04T01:43:14;100613.25;;;-0.47;84.95
60974;BME280;46846;51.528;5.076;2023-12-04T01:45:40;100611.53;;;-0.45;84.68
60974;BME280;46846;51.528;5.076;2023-12-04T01:48:06;100614.97;;;-0.50;85.04
60974;BME280;46846;51.528;5.076;2023-12-04T01:50:33;100608.91;;;-0.48;84.95
60974;BME280;46846;51.528;5.076;2023-12-04T01:53:00;100602.78;;;-0.47;84.58
60974;BME280;46846;51.528;5.076;2023-12-04T01:55:25;100604.53;;;-0.52;84.78
60974;BME280;46846;51.528;5.076;2023-12-04T01:57:51;100606.31;;;-0.46;84.94
60974;BME280;46846;51.528;5.076;2023-12-04T02:00:18;100594.97;;;-0.48;85.03
60974;BME280;46846;51.528;5.076;2023-12-04T02:02:46;100597.59;;;-0.48;84.85
60974;BME280;46846;51.528;5.076;2023-12-04T02:05:12;100588.84;;;-0.46;84.58
60974;BME280;46846;51.528;5.076;2023-12-04T02:07:41;100590.63;;;-0.46;84.54
60974;BME280;46846;51.528;5.076;2023-12-04T02:10:06;100573.19;;;-0.44;84.61
60974;BME280;46846;51.528;5.076;2023-12-04T02:12:32;100581.88;;;-0.50;84.78
60974;BME280;46846;51.528;5.076;2023-12-04T02:14:58;100581.03;;;-0.47;84.48
60974;BME280;46846;51.528;5.076;2023-12-04T02:17:24;100577.50;;;-0.52;85.08
60974;BME280;46846;51.528;5.076;2023-12-04T02:19:51;100574.00;;;-0.51;84.96
60974;BME280;46846;51.528;5.076;2023-12-04T02:22:17;100574.91;;;-0.51;85.09
60974;BME280;46846;51.528;5.076;2023-12-04T02:24:45;100565.34;;;-0.47;84.92
60974;BME280;46846;51.528;5.076;2023-12-04T02:27:22;100562.72;;;-0.49;85.00
60974;BME280;46846;51.528;5.076;2023-12-04T02:29:53;100567.06;;;-0.49;84.46
60974;BME280;46846;51.528;5.076;2023-12-04T02:32:21;100557.50;;;-0.46;85.10
60974;BME280;46846;51.528;5.076;2023-12-04T02:34:49;100556.66;;;-0.45;84.77
60974;BME280;46846;51.528;5.076;2023-12-04T02:37:16;100548.78;;;-0.51;84.77
60974;BME280;46846;51.528;5.076;2023-12-04T02:39:42;100548.78;;;-0.48;84.49
60974;BME280;46846;51.528;5.076;2023-12-04T02:42:08;100548.78;;;-0.51;84.66
60974;BME280;46846;51.528;5.076;2023-12-04T02:44:33;100542.69;;;-0.47;84.96
60974;BME280;46846;51.528;5.076;2023-12-04T02:46:59;100541.81;;;-0.46;84.75
60974;BME280;46846;51.528;5.076;2023-12-04T02:49:25;100534.84;;;-0.48;85.05
60974;BME280;46846;51.528;5.076;2023-12-04T02:51:50;100533.09;;;-0.48;85.03
60974;BME280;46846;51.528;5.076;2023-12-04T02:54:15;100525.25;;;-0.51;84.60
60974;BME280;46846;51.528;5.076;2023-12-04T02:56:41;100522.63;;;-0.52;84.60
60974;BME280;46846;51.528;5.076;2023-12-04T02:59:06;100519.16;;;-0.50;84.41
60974;BME280;46846;51.528;5.076;2023-12-04T03:01:31;100514.75;;;-0.54;84.78
60974;BME280;46846;51.528;5.076;2023-12-04T03:03:57;100504.31;;;-0.49;84.91
60974;BME280;46846;51.528;5.076;2023-12-04T03:06:22;100508.66;;;-0.53;85.07
60974;BME280;46846;51.528;5.076;2023-12-04T03:08:48;100502.56;;;-0.55;84.52
60974;BME280;46846;51.528;5.076;2023-12-04T03:11:13;100499.09;;;-0.49;84.98
60974;BME280;46846;51.528;5.076;2023-12-04T03:13:38;100499.09;;;-0.48;84.67
60974;BME280;46846;51.528;5.076;2023-12-04T03:16:04;100496.50;;;-0.48;84.56
60974;BME280;46846;51.528;5.076;2023-12-04T03:18:29;100492.13;;;-0.50;84.42
60974;BME280;46846;51.528;5.076;2023-12-04T03:20:55;100478.19;;;-0.49;84.37
60974;BME280;46846;51.528;5.076;2023-12-04T03:23:20;100476.47;;;-0.49;84.95
60974;BME280;46846;51.528;5.076;2023-12-04T03:25:46;100474.69;;;-0.51;84.76
60974;BME280;46846;51.528;5.076;2023-12-04T03:28:11;100466.00;;;-0.52;84.47
60974;BME280;46846;51.528;5.076;2023-12-04T03:30:38;100466.84;;;-0.56;84.62
60974;BME280;46846;51.528;5.076;2023-12-04T03:33:03;100457.25;;;-0.56;84.59
60974;BME280;46846;51.528;5.076;2023-12-04T03:35:29;100460.75;;;-0.53;85.03
60974;BME280;46846;51.528;5.076;2023-12-04T03:37:54;100459.88;;;-0.57;84.64
60974;BME280;46846;51.528;5.076;2023-12-04T03:40:20;100465.06;;;-0.63;84.74
60974;BME280;46846;51.528;5.076;2023-12-04T03:42:45;100449.41;;;-0.57;84.84
60974;BME280;46846;51.528;5.076;2023-12-04T03:45:10;100449.44;;;-0.52;85.16
60974;BME280;46846;51.528;5.076;2023-12-04T03:47:36;100447.66;;;-0.58;84.55
60974;BME280;46846;51.528;5.076;2023-12-04T03:50:01;100444.16;;;-0.60;84.60
60974;BME280;46846;51.528;5.076;2023-12-04T03:52:27;100444.19;;;-0.57;85.14
60974;BME280;46846;51.528;5.076;2023-12-04T03:54:52;100440.69;;;-0.58;85.21
60974;BME280;46846;51.528;5.076;2023-12-04T03:57:17;100438.94;;;-0.57;84.77
60974;BME280;46846;51.528;5.076;2023-12-04T03:59:43;100435.47;;;-0.59;85.03
60974;BME280;46846;51.528;5.076;2023-12-04T04:02:09;100438.06;;;-0.61;84.79
60974;BME280;46846;51.528;5.076;2023-12-04T04:04:34;100435.44;;;-0.62;84.78
60974;BME280;46846;51.528;5.076;2023-12-04T04:07:00;100432.84;;;-0.56;84.68
60974;BME280;46846;51.528;5.076;2023-12-04T04:09:25;100418.91;;;-0.55;84.61
60974;BME280;46846;51.528;5.076;2023-12-04T04:11:50;100412.81;;;-0.57;84.52
60974;BME280;46846;51.528;5.076;2023-12-04T04:14:16;100418.91;;;-0.55;84.98
60974;BME280;46846;51.528;5.076;2023-12-04T04:16:41;100414.56;;;-0.53;84.88
60974;BME280;46846;51.528;5.076;2023-12-04T04:19:07;100403.25;;;-0.55;84.94
60974;BME280;46846;51.528;5.076;2023-12-04T04:21:32;100404.09;;;-0.61;84.93
60974;BME280;46846;51.528;5.076;2023-12-04T04:23:57;100406.72;;;-0.56;84.90
60974;BME280;46846;51.528;5.076;2023-12-04T04:26:23;100399.72;;;-0.63;84.89
60974;BME280;46846;51.528;5.076;2023-12-04T04:28:48;100388.41;;;-0.61;84.94
60974;BME280;46846;51.528;5.076;2023-12-04T04:31:13;100397.13;;;-0.62;84.80
60974;BME280;46846;51.528;5.076;2023-12-04T04:33:39;100397.09;;;-0.60;84.80
60974;BME280;46846;51.528;5.076;2023-12-04T04:36:04;100380.53;;;-0.64;85.16
60974;BME280;46846;51.528;5.076;2023-12-04T04:38:30;100382.31;;;-0.60;84.63
60974;BME280;46846;51.528;5.076;2023-12-04T04:40:55;100379.69;;;-0.63;84.57
60974;BME280;46846;51.528;5.076;2023-12-04T04:43:21;100386.69;;;-0.56;84.44
60974;BME280;46846;51.528;5.076;2023-12-04T04:45:46;100391.94;;;-0.49;84.63
60974;BME280;46846;51.528;5.076;2023-12-04T04:48:12;100387.59;;;-0.52;84.46
60974;BME280;46846;51.528;5.076;2023-12-04T04:50:37;100383.22;;;-0.54;84.78
60974;BME280;46846;51.528;5.076;2023-12-04T04:53:02;100382.34;;;-0.53;84.66
60974;BME280;46846;51.528;5.076;2023-12-04T04:55:28;100383.19;;;-0.61;84.40
60974;BME280;46846;51.528;5.076;2023-12-04T04:57:53;100382.31;;;-0.60;84.87
60974;BME280;46846;51.528;5.076;2023-12-04T05:00:19;100374.47;;;-0.61;84.51
60974;BME280;46846;51.528;5.076;2023-12-04T05:02:45;100368.41;;;-0.56;84.50
60974;BME280;46846;51.528;5.076;2023-12-04T05:05:11;100375.34;;;-0.58;85.08
60974;BME280;46846;51.528;5.076;2023-12-04T05:07:37;100365.78;;;-0.57;84.57
60974;BME280;46846;51.528;5.076;2023-12-04T05:10:02;100360.56;;;-0.57;84.90
60974;BME280;46846;51.528;5.076;2023-12-04T05:12:28;100355.28;;;-0.60;84.60
60974;BME280;46846;51.528;5.076;2023-12-04T05:14:53;100337.91;;;-0.58;85.01
60974;BME280;46846;51.528;5.076;2023-12-04T05:17:18;100343.13;;;-0.63;85.06
60974;BME280;46846;51.528;5.076;2023-12-04T05:19:44;100337.03;;;-0.62;84.53
60974;BME280;46846;51.528;5.076;2023-12-04T05:22:09;100334.38;;;-0.63;84.70
60974;BME280;46846;51.528;5.076;2023-12-04T05:24:35;100329.16;;;-0.66;85.03
60974;BME280;46846;51.528;5.076;2023-12-04T05:27:01;100321.31;;;-0.65;85.04
60974;BME280;46846;51.528;5.076;2023-12-04T05:29:27;100322.19;;;-0.64;84.87
60974;BME280;46846;51.528;5.076;2023-12-04T05:31:53;100323.06;;;-0.70;85.19
60974;BME280;46846;51.528;5.076;2023-12-04T05:34:18;100316.09;;;-0.66;85.06
60974;BME280;46846;51.528;5.076;2023-12-04T05:36:44;100326.53;;;-0.65;84.90
60974;BME280;46846;51.528;5.076;2023-12-04T05:39:09;100326.56;;;-0.66;84.70
60974;BME280;46846;51.528;5.076;2023-12-04T05:41:34;100321.31;;;-0.70;85.37
60974;BME280;46846;51.528;5.076;2023-12-04T05:44:00;100315.22;;;-0.72;85.04
60974;BME280;46846;51.528;5.076;2023-12-04T05:46:26;100310.84;;;-0.74;84.72
60974;BME280;46846;51.528;5.076;2023-12-04T05:48:51;100311.72;;;-0.67;85.17
60974;BME280;46846;51.528;5.076;2023-12-04T05:51:17;100311.72;;;-0.71;84.89
60974;BME280;46846;51.528;5.076;2023-12-04T05:53:42;100298.66;;;-0.66;85.00
60974;BME280;46846;51.528;5.076;2023-12-04T05:56:08;100299.53;;;-0.69;84.74
60974;BME280;46846;51.528;5.076;2023-12-04T05:58:34;100296.94;;;-0.62;84.43
60974;BME280;46846;51.528;5.076;2023-12-04T06:01:00;100298.66;;;-0.66;85.04
60974;BME280;46846;51.528;5.076;2023-12-04T06:03:25;100292.56;;;-0.65;84.60
60974;BME280;46846;51.528;5.076;2023-12-04T06:05:51;100289.09;;;-0.62;85.00
60974;BME280;46846;51.528;5.076;2023-12-04T06:08:16;100296.06;;;-0.64;85.02
60974;BME280;46846;51.528;5.076;2023-12-04T06:10:42;100289.97;;;-0.68;84.81
60974;BME280;46846;51.528;5.076;2023-12-04T06:13:07;100282.13;;;-0.63;84.82
60974;BME280;46846;51.528;5.076;2023-12-04T06:15:32;100284.72;;;-0.65;84.58
60974;BME280;46846;51.528;5.076;2023-12-04T06:17:58;100275.16;;;-0.61;84.68
60974;BME280;46846;51.528;5.076;2023-12-04T06:20:23;100271.69;;;-0.66;84.98
60974;BME280;46846;51.528;5.076;2023-12-04T06:22:49;100267.31;;;-0.67;85.08
60974;BME280;46846;51.528;5.076;2023-12-04T06:25:15;100275.13;;;-0.67;85.27
60974;BME280;46846;51.528;5.076;2023-12-04T06:27:41;100269.94;;;-0.61;84.82
60974;BME280;46846;51.528;5.076;2023-12-04T06:30:07;100272.56;;;-0.57;84.74
60974;BME280;46846;51.528;5.076;2023-12-04T06:32:32;100262.97;;;-0.65;84.35
60974;BME280;46846;51.528;5.076;2023-12-04T06:34:58;100266.44;;;-0.63;84.93
60974;BME280;46846;51.528;5.076;2023-12-04T06:37:24;100270.81;;;-0.62;84.88
60974;BME280;46846;51.528;5.076;2023-12-04T06:39:51;100265.59;;;-0.61;84.50
60974;BME280;46846;51.528;5.076;2023-12-04T06:42:18;100257.75;;;-0.59;84.40
60974;BME280;46846;51.528;5.076;2023-12-04T06:44:43;100254.25;;;-0.64;85.11
60974;BME280;46846;51.528;5.076;2023-12-04T06:47:09;100256.91;;;-0.58;84.56
60974;BME280;46846;51.528;5.076;2023-12-04T06:49:35;100250.78;;;-0.63;84.47
60974;BME280;46846;51.528;5.076;2023-12-04T06:52:00;100237.69;;;-0.65;84.93
60974;BME280;46846;51.528;5.076;2023-12-04T06:54:26;100243.81;;;-0.58;84.68
60974;BME280;46846;51.528;5.076;2023-12-04T06:56:51;100245.56;;;-0.66;84.67
60974;BME280;46846;51.528;5.076;2023-12-04T06:59:20;100240.31;;;-0.66;84.42
60974;BME280;46846;51.528;5.076;2023-12-04T07:01:46;100235.09;;;-0.66;84.97
60974;BME280;46846;51.528;5.076;2023-12-04T07:04:13;100233.38;;;-0.58;84.16
60974;BME280;46846;51.528;5.076;2023-12-04T07:06:39;100228.13;;;-0.64;84.55
60974;BME280;46846;51.528;5.076;2023-12-04T07:09:06;100226.38;;;-0.65;84.59
60974;BME280;46846;51.528;5.076;2023-12-04T07:11:34;100226.41;;;-0.61;84.50
60974;BME280;46846;51.528;5.076;2023-12-04T07:14:00;100235.97;;;-0.66;84.62
60974;BME280;46846;51.528;5.076;2023-12-04T07:16:25;100234.22;;;-0.61;84.71
60974;BME280;46846;51.528;5.076;2023-12-04T07:18:50;100232.47;;;-0.60;84.57
60974;BME280;46846;51.528;5.076;2023-12-04T07:21:16;100222.03;;;-0.57;84.00
60974;BME280;46846;51.528;5.076;2023-12-04T07:23:41;100224.66;;;-0.59;84.54
60974;BME280;46846;51.528;5.076;2023-12-04T07:26:07;100211.59;;;-0.62;84.77
60974;BME280;46846;51.528;5.076;2023-12-04T07:28:33;100223.78;;;-0.65;84.31
60974;BME280;46846;51.528;5.076;2023-12-04T07:30:58;100218.53;;;-0.58;84.61
60974;BME280;46846;51.528;5.076;2023-12-04T07:33:24;100222.03;;;-0.62;84.67
60974;BME280;46846;51.528;5.076;2023-12-04T07:35:49;100215.91;;;-0.64;84.22
60974;BME280;46846;51.528;5.076;2023-12-04T07:38:16;100217.69;;;-0.58;84.77
60974;BME280;46846;51.528;5.076;2023-12-04T07:40:41;100207.25;;;-0.58;84.55
60974;BME280;46846;51.528;5.076;2023-12-04T07:43:07;100216.81;;;-0.57;84.62
60974;BME280;46846;51.528;5.076;2023-12-04T07:45:32;100223.78;;;-0.61;84.38
60974;BME280;46846;51.528;5.076;2023-12-04T07:47:59;100227.25;;;-0.59;84.15
60974;BME280;46846;51.528;5.076;2023-12-04T07:50:25;100213.31;;;-0.62;84.25
60974;BME280;46846;51.528;5.076;2023-12-04T07:52:51;100213.31;;;-0.61;84.76
60974;BME280;46846;51.528;5.076;2023-12-04T07:55:16;100215.06;;;-0.66;84.70
60974;BME280;46846;51.528;5.076;2023-12-04T07:57:42;100216.81;;;-0.63;84.79
60974;BME280;46846;51.528;5.076;2023-12-04T08:00:08;100211.59;;;-0.56;84.46
60974;BME280;46846;51.528;5.076;2023-12-04T08:02:33;100203.75;;;-0.63;84.40
60974;BME280;46846;51.528;5.076;2023-12-04T08:04:59;100199.38;;;-0.61;84.43
60974;BME280;46846;51.528;5.076;2023-12-04T08:07:24;100200.25;;;-0.65;84.95
60974;BME280;46846;51.528;5.076;2023-12-04T08:09:50;100198.50;;;-0.70;84.85
60974;BME280;46846;51.528;5.076;2023-12-04T08:12:15;100197.66;;;-0.61;84.55
60974;BME280;46846;51.528;5.076;2023-12-04T08:14:41;100195.06;;;-0.54;84.13
60974;BME280;46846;51.528;5.076;2023-12-04T08:17:06;100185.44;;;-0.60;84.58
60974;BME280;46846;51.528;5.076;2023-12-04T08:19:31;100184.56;;;-0.62;84.43
60974;BME280;46846;51.528;5.076;2023-12-04T08:21:57;100180.22;;;-0.68;84.56
60974;BME280;46846;51.528;5.076;2023-12-04T08:24:23;100180.22;;;-0.65;84.16
60974;BME280;46846;51.528;5.076;2023-12-04T08:26:49;100179.34;;;-0.64;84.30
60974;BME280;46846;51.528;5.076;2023-12-04T08:29:16;100173.25;;;-0.63;84.42
60974;BME280;46846;51.528;5.076;2023-12-04T08:31:41;100167.16;;;-0.59;84.75
60974;BME280;46846;51.528;5.076;2023-12-04T08:34:07;100166.28;;;-0.56;84.56
60974;BME280;46846;51.528;5.076;2023-12-04T08:36:32;100163.66;;;-0.58;84.09
60974;BME280;46846;51.528;5.076;2023-12-04T08:38:58;100156.69;;;-0.60;83.81
60974;BME280;46846;51.528;5.076;2023-12-04T08:41:23;100156.69;;;-0.60;84.28
60974;BME280;46846;51.528;5.076;2023-12-04T08:43:48;100152.34;;;-0.60;84.22
60974;BME280;46846;51.528;5.076;2023-12-04T08:46:14;100154.97;;;-0.58;84.55
60974;BME280;46846;51.528;5.076;2023-12-04T08:48:42;100152.38;;;-0.58;84.27
60974;BME280;46846;51.528;5.076;2023-12-04T08:51:15;100140.13;;;-0.64;84.57
60974;BME280;46846;51.528;5.076;2023-12-04T08:53:40;100144.50;;;-0.67;84.28
60974;BME280;46846;51.528;5.076;2023-12-04T08:56:06;100143.63;;;-0.60;84.08
60974;BME280;46846;51.528;5.076;2023-12-04T08:58:32;100146.25;;;-0.60;84.70
60974;BME280;46846;51.528;5.076;2023-12-04T09:00:57;100145.38;;;-0.61;84.40
60974;BME280;46846;51.528;5.076;2023-12-04T09:03:23;100141.00;;;-0.60;84.24
60974;BME280;46846;51.528;5.076;2023-12-04T09:05:49;100139.28;;;-0.57;84.03
60974;BME280;46846;51.528;5.076;2023-12-04T09:08:17;100142.75;;;-0.53;84.19
60974;BME280;46846;51.528;5.076;2023-12-04T09:10:42;100142.78;;;-0.51;83.75
60974;BME280;46846;51.528;5.076;2023-12-04T09:13:08;100146.25;;;-0.52;84.24
60974;BME280;46846;51.528;5.076;2023-12-04T09:15:33;100144.50;;;-0.49;84.33
60974;BME280;46846;51.528;5.076;2023-12-04T09:17:58;100140.16;;;-0.47;83.71
60974;BME280;46846;51.528;5.076;2023-12-04T09:20:24;100139.28;;;-0.49;84.19
60974;BME280;46846;51.528;5.076;2023-12-04T09:22:50;100128.84;;;-0.49;84.30
60974;BME280;46846;51.528;5.076;2023-12-04T09:25:16;100130.59;;;-0.51;83.95
60974;BME280;46846;51.528;5.076;2023-12-04T09:27:41;100132.31;;;-0.53;84.15
60974;BME280;46846;51.528;5.076;2023-12-04T09:30:07;100133.19;;;-0.46;84.04
60974;BME280;46846;51.528;5.076;2023-12-04T09:32:32;100134.94;;;-0.54;84.16
60974;BME280;46846;51.528;5.076;2023-12-04T09:34:58;100135.78;;;-0.48;84.19
60974;BME280;46846;51.528;5.076;2023-12-04T09:37:24;100134.91;;;-0.47;83.50
60974;BME280;46846;51.528;5.076;2023-12-04T09:39:49;100122.72;;;-0.52;83.49
60974;BME280;46846;51.528;5.076;2023-12-04T09:42:16;100126.22;;;-0.53;84.48
60974;BME280;46846;51.528;5.076;2023-12-04T09:44:43;100127.06;;;-0.53;83.44
60974;BME280;46846;51.528;5.076;2023-12-04T09:47:09;100129.69;;;-0.51;83.95
60974;BME280;46846;51.528;5.076;2023-12-04T09:49:35;100118.41;;;-0.52;84.35
60974;BME280;46846;51.528;5.076;2023-12-04T09:52:02;100121.00;;;-0.53;84.37
60974;BME280;46846;51.528;5.076;2023-12-04T09:54:30;100123.59;;;-0.46;83.68
60974;BME280;46846;51.528;5.076;2023-12-04T09:56:56;100120.13;;;-0.45;83.88
60974;BME280;46846;51.528;5.076;2023-12-04T09:59:24;100111.41;;;-0.47;83.66
60974;BME280;46846;51.528;5.076;2023-12-04T10:01:51;100118.41;;;-0.52;84.08
60974;BME280;46846;51.528;5.076;2023-12-04T10:04:16;100113.16;;;-0.47;83.87
60974;BME280;46846;51.528;5.076;2023-12-04T10:06:43;100100.97;;;-0.50;84.05
60974;BME280;46846;51.528;5.076;2023-12-04T10:09:10;100096.59;;;-0.52;84.33
60974;BME280;46846;51.528;5.076;2023-12-04T10:11:42;100096.59;;;-0.49;84.02
60974;BME280;46846;51.528;5.076;2023-12-04T10:14:18;100094.84;;;-0.55;84.37
60974;BME280;46846;51.528;5.076;2023-12-04T10:16:44;100080.91;;;-0.59;84.25
60974;BME280;46846;51.528;5.076;2023-12-04T10:19:22;100077.44;;;-0.51;83.66
60974;BME280;46846;51.528;5.076;2023-12-04T10:21:51;100078.31;;;-0.57;84.47
60974;BME280;46846;51.528;5.076;2023-12-04T10:24:33;100076.56;;;-0.52;84.30
60974;BME280;46846;51.528;5.076;2023-12-04T10:27:08;100073.06;;;-0.52;84.18
60974;BME280;46846;51.528;5.076;2023-12-04T10:29:46;100063.50;;;-0.49;84.22
60974;BME280;46846;51.528;5.076;2023-12-04T10:32:12;100061.75;;;-0.48;84.05
60974;BME280;46846;51.528;5.076;2023-12-04T10:34:41;100053.03;;;-0.43;83.97
60974;BME280;46846;51.528;5.076;2023-12-04T10:37:08;100048.66;;;-0.42;84.06
60974;BME280;46846;51.528;5.076;2023-12-04T10:39:51;100041.69;;;-0.38;83.89
60974;BME280;46846;51.528;5.076;2023-12-04T10:42:42;100030.34;;;-0.42;83.53
60974;BME280;46846;51.528;5.076;2023-12-04T10:45:08;100033.84;;;-0.35;83.69
60974;BME280;46846;51.528;5.076;2023-12-04T10:47:35;100029.50;;;-0.39;84.09
60974;BME280;46846;51.528;5.076;2023-12-04T10:50:01;100021.66;;;-0.46;84.20
60974;BME280;46846;51.528;5.076;2023-12-04T10:52:28;100021.66;;;-0.46;83.79
60974;BME280;46846;51.528;5.076;2023-12-04T10:54:53;100024.25;;;-0.39;83.82
60974;BME280;46846;51.528;5.076;2023-12-04T10:57:35;100009.47;;;-0.37;83.49
60974;BME280;46846;51.528;5.076;2023-12-04T11:00:04;100016.44;;;-0.36;84.12
60974;BME280;46846;51.528;5.076;2023-12-04T11:02:33;100022.50;;;-0.34;83.22
60974;BME280;46846;51.528;5.076;2023-12-04T11:05:13;100012.06;;;-0.34;83.55
60974;BME280;46846;51.528;5.076;2023-12-04T11:07:44;100015.53;;;-0.32;83.52
60974;BME280;46846;51.528;5.076;2023-12-04T11:10:13;100008.56;;;-0.33;83.44
60974;BME280;46846;51.528;5.076;2023-12-04T11:12:45;100007.69;;;-0.34;83.34
60974;BME280;46846;51.528;5.076;2023-12-04T11:15:16;100005.06;;;-0.32;83.36
60974;BME280;46846;51.528;5.076;2023-12-04T11:17:43;100003.31;;;-0.29;83.76
60974;BME280;46846;51.528;5.076;2023-12-04T11:20:14;99994.59;;;-0.26;83.79
60974;BME280;46846;51.528;5.076;2023-12-04T11:22:43;99996.34;;;-0.31;83.62
60974;BME280;46846;51.528;5.076;2023-12-04T11:25:10;99992.88;;;-0.27;83.82
60974;BME280;46846;51.528;5.076;2023-12-04T11:27:38;99985.88;;;-0.25;83.89
60974;BME280;46846;51.528;5.076;2023-12-04T11:30:05;99983.25;;;-0.20;83.37
60974;BME280;46846;51.528;5.076;2023-12-04T11:32:31;99973.69;;;-0.28;83.58
60974;BME280;46846;51.528;5.076;2023-12-04T11:34:59;99971.13;;;-0.42;84.21
60974;BME280;46846;51.528;5.076;2023-12-04T11:37:26;99962.41;;;-0.33;84.25
60974;BME280;46846;51.528;5.076;2023-12-04T11:39:51;99962.38;;;-0.34;84.12
60974;BME280;46846;51.528;5.076;2023-12-04T11:42:23;99945.00;;;-0.40;83.82
60974;BME280;46846;51.528;5.076;2023-12-04T11:44:49;99947.59;;;-0.35;84.21
60974;BME280;46846;51.528;5.076;2023-12-04T11:47:20;99944.09;;;-0.36;84.37
60974;BME280;46846;51.528;5.076;2023-12-04T11:49:46;99933.66;;;-0.39;84.03
60974;BME280;46846;51.528;5.076;2023-12-04T11:52:11;99937.06;;;-0.26;84.34
60974;BME280;46846;51.528;5.076;2023-12-04T11:57:23;99917.91;;;-0.25;84.08
60974;BME280;46846;51.528;5.076;2023-12-04T11:59:49;99918.78;;;-0.28;84.20
60974;BME280;46846;51.528;5.076;2023-12-04T12:02:15;99911.81;;;-0.30;84.64
60974;BME280;46846;51.528;5.076;2023-12-04T12:04:41;99911.81;;;-0.27;84.28
60974;BME280;46846;51.528;5.076;2023-12-04T12:07:06;99903.94;;;-0.22;83.93
60974;BME280;46846;51.528;5.076;2023-12-04T12:09:32;99904.00;;;-0.33;84.41
60974;BME280;46846;51.528;5.076;2023-12-04T12:12:02;99901.34;;;-0.25;84.60
60974;BME280;46846;51.528;5.076;2023-12-04T12:14:31;99891.75;;;-0.22;84.24
60974;BME280;46846;51.528;5.076;2023-12-04T12:17:00;99890.00;;;-0.23;84.67
60974;BME280;46846;51.528;5.076;2023-12-04T12:19:26;99890.91;;;-0.27;84.56
60974;BME280;46846;51.528;5.076;2023-12-04T12:21:52;99878.69;;;-0.23;84.68
60974;BME280;46846;51.528;5.076;2023-12-04T12:24:18;99881.38;;;-0.37;85.04
60974;BME280;46846;51.528;5.076;2023-12-04T12:26:44;99877.88;;;-0.36;84.58
60974;BME280;46846;51.528;5.076;2023-12-04T12:29:10;99877.84;;;-0.35;85.14
60974;BME280;46846;51.528;5.076;2023-12-04T12:31:36;99873.50;;;-0.34;84.57
60974;BME280;46846;51.528;5.076;2023-12-04T12:34:01;99862.16;;;-0.35;84.93
60974;BME280;46846;51.528;5.076;2023-12-04T12:36:28;99867.41;;;-0.32;85.00
60974;BME280;46846;51.528;5.076;2023-12-04T12:38:54;99860.41;;;-0.31;84.86
60974;BME280;46846;51.528;5.076;2023-12-04T12:41:19;99856.03;;;-0.24;84.98
60974;BME280;46846;51.528;5.076;2023-12-04T12:43:45;99853.38;;;-0.21;85.08
60974;BME280;46846;51.528;5.076;2023-12-04T12:46:11;99849.91;;;-0.25;84.57
60974;BME280;46846;51.528;5.076;2023-12-04T12:48:37;99842.97;;;-0.28;84.98